sensor_id;sensor_type;location;lat;lon;timestamp;pressure;altitude;pressure_sealevel;temperature;humidity
73455;BME280;61690;51.824;6.306;2023-02-02T00:01:38;101915.56;;;17.91;42.43
73455;BME280;61690;51.824;6.306;2023-02-02T00:04:04;101913.06;;;17.88;42.47
73455;BME280;61690;51.824;6.306;2023-02-02T00:06:30;101911.16;;;17.92;42.60
73455;BME280;61690;51.824;6.306;2023-02-02T00:08:58;101914.78;;;17.89;42.70
73455;BME280;61690;51.824;6.306;2023-02-02T00:11:24;101907.94;;;17.85;42.87
73455;BME280;61690;51.824;6.306;2023-02-02T00:13:50;101907.03;;;17.86;42.92
73455;BME280;61690;51.824;6.306;2023-02-02T00:18:57;101922.03;;;17.84;42.94
73455;BME280;61690;51.824;6.306;2023-02-02T00:21:23;101916.78;;;17.84;42.84
73455;BME280;61690;51.824;6.306;2023-02-02T00:23:48;101914.13;;;17.84;42.71
73455;BME280;61690;51.824;6.306;2023-02-02T00:26:14;101908.91;;;17.82;42.70
73455;BME280;61690;51.824;6.306;2023-02-02T00:28:39;101908.91;;;17.82;42.41
73455;BME280;61690;51.824;6.306;2023-02-02T00:31:04;101910.56;;;17.85;42.69
73455;BME280;61690;51.824;6.306;2023-02-02T00:33:30;101916.88;;;17.81;42.87
73455;BME280;61690;51.824;6.306;2023-02-02T00:35:55;101916.78;;;17.84;42.44
73455;BME280;61690;51.824;6.306;2023-02-02T00:38:21;101910.03;;;17.77;42.67
73455;BME280;61690;51.824;6.306;2023-02-02T00:40:46;101920.56;;;17.77;42.80
73455;BME280;61690;51.824;6.306;2023-02-02T00:43:11;101922.41;;;17.75;42.56
73455;BME280;61690;51.824;6.306;2023-02-02T00:45:37;101912.69;;;17.77;42.57
73455;BME280;61690;51.824;6.306;2023-02-02T00:48:03;101909.31;;;17.73;42.76
73455;BME280;61690;51.824;6.306;2023-02-02T00:50:29;101922.41;;;17.75;42.53
73455;BME280;61690;51.824;6.306;2023-02-02T00:52:54;101924.28;;;17.73;42.74
73455;BME280;61690;51.824;6.306;2023-02-02T00:55:20;101913.75;;;17.73;42.39
73455;BME280;61690;51.824;6.306;2023-02-02T00:57:46;101922.53;;;17.72;42.66
73455;BME280;61690;51.824;6.306;2023-02-02T01:00:17;101916.31;;;17.74;42.72
73455;BME280;61690;51.824;6.306;2023-02-02T01:02:43;101919.84;;;17.73;42.24
73455;BME280;61690;51.824;6.306;2023-02-02T01:05:10;101914.75;;;17.70;42.81
73455;BME280;61690;51.824;6.306;2023-02-02T01:07:36;101917.44;;;17.69;42.37
73455;BME280;61690;51.824;6.306;2023-02-02T01:10:02;101912.19;;;17.69;42.50
73455;BME280;61690;51.824;6.306;2023-02-02T01:12:27;101907.75;;;17.69;42.58
73455;BME280;61690;51.824;6.306;2023-02-02T01:14:53;101909.69;;;17.66;42.53
73455;BME280;61690;51.824;6.306;2023-02-02T01:17:18;101904.34;;;17.67;42.66
73455;BME280;61690;51.824;6.306;2023-02-02T01:19:43;101915.72;;;17.68;42.54
73455;BME280;61690;51.824;6.306;2023-02-02T01:22:09;101915.88;;;17.64;42.74
73455;BME280;61690;51.824;6.306;2023-02-02T01:24:34;101916.00;;;17.61;42.79
73455;BME280;61690;51.824;6.306;2023-02-02T01:27:00;101915.94;;;17.63;42.83
73455;BME280;61690;51.824;6.306;2023-02-02T01:29:25;101920.34;;;17.62;42.54
73455;BME280;61690;51.824;6.306;2023-02-02T01:31:51;101911.47;;;17.65;42.57
73455;BME280;61690;51.824;6.306;2023-02-02T01:34:16;101910.03;;;17.58;42.48
73455;BME280;61690;51.824;6.306;2023-02-02T01:36:42;101915.16;;;17.61;42.67
73455;BME280;61690;51.824;6.306;2023-02-02T01:39:07;101924.84;;;17.60;42.80
73455;BME280;61690;51.824;6.306;2023-02-02T01:41:32;101926.66;;;17.58;42.45
73455;BME280;61690;51.824;6.306;2023-02-02T01:44:03;101931.06;;;17.58;42.47
73455;BME280;61690;51.824;6.306;2023-02-02T01:46:34;101935.34;;;17.60;42.67
73455;BME280;61690;51.824;6.306;2023-02-02T01:49:19;101942.44;;;17.58;42.34
73455;BME280;61690;51.824;6.306;2023-02-02T01:51:51;101946.00;;;17.57;42.55
73455;BME280;61690;51.824;6.306;2023-02-02T01:54:22;101941.47;;;17.61;42.77
73455;BME280;61690;51.824;6.306;2023-02-02T01:56:56;101945.00;;;17.60;42.32
73455;BME280;61690;51.824;6.306;2023-02-02T01:59:23;101943.38;;;17.57;42.28
73455;BME280;61690;51.824;6.306;2023-02-02T02:01:51;101937.19;;;17.58;42.53
73455;BME280;61690;51.824;6.306;2023-02-02T02:04:20;101947.84;;;17.55;42.79
73455;BME280;61690;51.824;6.306;2023-02-02T02:06:46;101946.00;;;17.57;42.36
73455;BME280;61690;51.824;6.306;2023-02-02T02:09:13;101939.03;;;17.56;42.55
73455;BME280;61690;51.824;6.306;2023-02-02T02:11:38;101945.28;;;17.54;42.66
73455;BME280;61690;51.824;6.306;2023-02-02T02:14:06;101941.88;;;17.52;42.51
73455;BME280;61690;51.824;6.306;2023-02-02T02:19:44;101944.56;;;17.50;42.44
73455;BME280;61690;51.824;6.306;2023-02-02T02:29:17;101933.25;;;17.48;42.77
73455;BME280;61690;51.824;6.306;2023-02-02T02:40:05;101929.00;;;17.46;42.52
73455;BME280;61690;51.824;6.306;2023-02-02T02:42:36;101931.63;;;17.46;42.77
73455;BME280;61690;51.824;6.306;2023-02-02T02:45:04;101923.06;;;17.40;42.71
73455;BME280;61690;51.824;6.306;2023-02-02T02:47:30;101924.78;;;17.41;42.61
73455;BME280;61690;51.824;6.306;2023-02-02T02:49:56;101922.16;;;17.41;42.56
73455;BME280;61690;51.824;6.306;2023-02-02T02:52:21;101923.91;;;17.41;42.66
73455;BME280;61690;51.824;6.306;2023-02-02T02:54:52;101930.84;;;17.43;42.35
73455;BME280;61690;51.824;6.306;2023-02-02T02:57:43;101934.31;;;17.44;42.19
73455;BME280;61690;51.824;6.306;2023-02-02T03:03:13;101928.41;;;17.39;42.76
73455;BME280;61690;51.824;6.306;2023-02-02T03:06:01;101927.56;;;17.38;42.43
73455;BME280;61690;51.824;6.306;2023-02-02T03:08:39;101928.41;;;17.39;42.67
73455;BME280;61690;51.824;6.306;2023-02-02T03:11:07;101931.91;;;17.39;42.37
73455;BME280;61690;51.824;6.306;2023-02-02T03:13:34;101925.75;;;17.39;42.61
73455;BME280;61690;51.824;6.306;2023-02-02T03:16:00;101925.75;;;17.39;42.52
73455;BME280;61690;51.824;6.306;2023-02-02T03:18:28;101920.50;;;17.39;42.56
73455;BME280;61690;51.824;6.306;2023-02-02T03:20:54;101922.34;;;17.37;42.38
73455;BME280;61690;51.824;6.306;2023-02-02T03:23:20;101920.66;;;17.36;42.42
73455;BME280;61690;51.824;6.306;2023-02-02T03:25:45;101907.44;;;17.37;42.55
73455;BME280;61690;51.824;6.306;2023-02-02T03:28:11;101900.41;;;17.38;42.18
73455;BME280;61690;51.824;6.306;2023-02-02T03:30:39;101899.69;;;17.34;42.63
73455;BME280;61690;51.824;6.306;2023-02-02T03:33:05;101905.78;;;17.35;42.31
73455;BME280;61690;51.824;6.306;2023-02-02T03:35:31;101906.72;;;17.34;42.63
73455;BME280;61690;51.824;6.306;2023-02-02T03:37:56;101920.66;;;17.36;42.44
73455;BME280;61690;51.824;6.306;2023-02-02T03:40:22;101922.34;;;17.37;42.72
73455;BME280;61690;51.824;6.306;2023-02-02T03:42:47;101927.75;;;17.34;42.68
73455;BME280;61690;51.824;6.306;2023-02-02T03:45:13;101934.00;;;17.31;42.57
73455;BME280;61690;51.824;6.306;2023-02-02T03:47:38;101932.25;;;17.32;42.56
73455;BME280;61690;51.824;6.306;2023-02-02T03:50:05;101935.84;;;17.29;42.31
73455;BME280;61690;51.824;6.306;2023-02-02T03:52:30;101942.09;;;17.27;42.56
73455;BME280;61690;51.824;6.306;2023-02-02T03:54:56;101938.41;;;17.31;42.42
73455;BME280;61690;51.824;6.306;2023-02-02T03:57:21;101949.84;;;17.30;42.87
73455;BME280;61690;51.824;6.306;2023-02-02T03:59:46;101941.81;;;17.33;42.68
73455;BME280;61690;51.824;6.306;2023-02-02T04:02:12;101939.84;;;17.38;42.29
73455;BME280;61690;51.824;6.306;2023-02-02T04:04:37;101932.13;;;17.54;42.16
73455;BME280;61690;51.824;6.306;2023-02-02T04:07:02;101933.22;;;17.69;41.47
73455;BME280;61690;51.824;6.306;2023-02-02T04:09:27;101934.38;;;17.82;41.36
73455;BME280;61690;51.824;6.306;2023-02-02T04:11:53;101928.63;;;17.93;41.26
73455;BME280;61690;51.824;6.306;2023-02-02T04:14:18;101933.41;;;18.03;41.16
73455;BME280;61690;51.824;6.306;2023-02-02T04:16:44;101933.72;;;18.16;40.82
73455;BME280;61690;51.824;6.306;2023-02-02T04:19:09;101928.22;;;18.21;41.12
73455;BME280;61690;51.824;6.306;2023-02-02T04:21:37;101926.22;;;18.26;40.66
73455;BME280;61690;51.824;6.306;2023-02-02T04:24:02;101917.09;;;18.33;40.71
73455;BME280;61690;51.824;6.306;2023-02-02T04:26:27;101914.31;;;18.36;40.50
73455;BME280;61690;51.824;6.306;2023-02-02T04:28:53;101917.66;;;18.40;40.48
73455;BME280;61690;51.824;6.306;2023-02-02T04:31:18;101912.16;;;18.45;40.71
73455;BME280;61690;51.824;6.306;2023-02-02T04:33:44;101912.00;;;18.48;40.84
73455;BME280;61690;51.824;6.306;2023-02-02T04:36:09;101908.59;;;18.46;40.41
73455;BME280;61690;51.824;6.306;2023-02-02T04:38:35;101915.66;;;18.45;40.64
73455;BME280;61690;51.824;6.306;2023-02-02T04:41:08;101915.41;;;18.50;40.82
73455;BME280;61690;51.824;6.306;2023-02-02T04:43:35;101916.91;;;18.55;40.39
73455;BME280;61690;51.824;6.306;2023-02-02T04:46:01;101912.47;;;18.56;40.65
73455;BME280;61690;51.824;6.306;2023-02-02T04:48:27;101915.69;;;18.63;40.66
73455;BME280;61690;51.824;6.306;2023-02-02T04:51:03;101909.19;;;18.70;40.39
73455;BME280;61690;51.824;6.306;2023-02-02T04:53:29;101902.81;;;18.74;40.51
73455;BME280;61690;51.824;6.306;2023-02-02T04:55:55;101911.56;;;18.74;40.28
73455;BME280;61690;51.824;6.306;2023-02-02T04:58:20;101912.06;;;18.83;40.03
73455;BME280;61690;51.824;6.306;2023-02-02T05:00:46;101916.50;;;18.82;40.58
73455;BME280;61690;51.824;6.306;2023-02-02T05:03:11;101913.00;;;18.82;40.11
73455;BME280;61690;51.824;6.306;2023-02-02T05:05:36;101912.22;;;18.79;40.35
73455;BME280;61690;51.824;6.306;2023-02-02T05:08:02;101913.19;;;18.77;40.21
73455;BME280;61690;51.824;6.306;2023-02-02T05:10:27;101921.03;;;18.78;40.33
73455;BME280;61690;51.824;6.306;2023-02-02T05:12:53;101919.84;;;18.86;40.42
73455;BME280;61690;51.824;6.306;2023-02-02T05:15:19;101917.03;;;18.89;40.36
73455;BME280;61690;51.824;6.306;2023-02-02T05:17:48;101926.25;;;18.97;40.48
73455;BME280;61690;51.824;6.306;2023-02-02T05:20:13;101921.84;;;18.98;40.07
73455;BME280;61690;51.824;6.306;2023-02-02T05:22:39;101926.78;;;19.04;39.95
73455;BME280;61690;51.824;6.306;2023-02-02T05:25:05;101931.91;;;19.07;40.19
73455;BME280;61690;51.824;6.306;2023-02-02T05:27:31;101927.28;;;19.12;40.40
73455;BME280;61690;51.824;6.306;2023-02-02T05:29:56;101932.59;;;19.28;40.15
73455;BME280;61690;51.824;6.306;2023-02-02T05:32:22;101941.34;;;19.46;41.13
73455;BME280;61690;51.824;6.306;2023-02-02T05:34:47;101941.94;;;19.51;41.47
73455;BME280;61690;51.824;6.306;2023-02-02T05:37:13;101942.09;;;19.48;41.65
73455;BME280;61690;51.824;6.306;2023-02-02T05:39:38;101953.81;;;19.60;41.75
73455;BME280;61690;51.824;6.306;2023-02-02T05:42:04;101945.66;;;19.65;42.07
73455;BME280;61690;51.824;6.306;2023-02-02T05:44:29;101946.59;;;19.64;41.53
73455;BME280;61690;51.824;6.306;2023-02-02T05:46:54;101942.56;;;19.56;41.29
73455;BME280;61690;51.824;6.306;2023-02-02T05:49:20;101946.59;;;19.64;41.63
73455;BME280;61690;51.824;6.306;2023-02-02T05:51:47;101951.09;;;19.79;42.20
73455;BME280;61690;51.824;6.306;2023-02-02T05:54:14;101960.28;;;19.88;42.45
73455;BME280;61690;51.824;6.306;2023-02-02T05:56:44;101943.25;;;19.93;42.10
73455;BME280;61690;51.824;6.306;2023-02-02T05:59:09;101948.38;;;19.96;42.30
73455;BME280;61690;51.824;6.306;2023-02-02T06:01:35;101940.47;;;19.96;42.17
73455;BME280;61690;51.824;6.306;2023-02-02T06:04:00;101938.75;;;19.95;42.12
73455;BME280;61690;51.824;6.306;2023-02-02T06:06:26;101943.88;;;19.98;42.04
73455;BME280;61690;51.824;6.306;2023-02-02T06:08:51;101947.28;;;20.01;42.06
73455;BME280;61690;51.824;6.306;2023-02-02T06:11:17;101948.03;;;20.03;41.98
73455;BME280;61690;51.824;6.306;2023-02-02T06:13:43;101952.28;;;20.05;42.18
73455;BME280;61690;51.824;6.306;2023-02-02T06:16:09;101952.13;;;20.08;42.25
73455;BME280;61690;51.824;6.306;2023-02-02T06:18:35;101958.00;;;20.13;42.16
73455;BME280;61690;51.824;6.306;2023-02-02T06:21:03;101950.06;;;20.13;42.35
73455;BME280;61690;51.824;6.306;2023-02-02T06:23:30;101945.66;;;20.14;42.41
73455;BME280;61690;51.824;6.306;2023-02-02T06:25:55;101953.31;;;20.18;42.69
73455;BME280;61690;51.824;6.306;2023-02-02T06:28:21;101959.22;;;20.24;42.74
73455;BME280;61690;51.824;6.306;2023-02-02T06:30:46;101965.50;;;20.21;42.86
73455;BME280;61690;51.824;6.306;2023-02-02T06:33:11;101959.28;;;20.22;42.86
73455;BME280;61690;51.824;6.306;2023-02-02T06:35:37;101970.53;;;20.26;42.79
73455;BME280;61690;51.824;6.306;2023-02-02T06:38:03;101972.34;;;20.25;42.53
73455;BME280;61690;51.824;6.306;2023-02-02T06:40:28;101975.66;;;20.29;42.63
73455;BME280;61690;51.824;6.306;2023-02-02T06:42:58;101973.78;;;20.31;42.81
73455;BME280;61690;51.824;6.306;2023-02-02T06:45:24;101981.53;;;20.34;42.74
73455;BME280;61690;51.824;6.306;2023-02-02T06:47:50;101987.78;;;20.33;42.98
73455;BME280;61690;51.824;6.306;2023-02-02T06:50:16;101989.47;;;20.34;43.16
73455;BME280;61690;51.824;6.306;2023-02-02T06:52:48;101990.50;;;20.31;42.99
73455;BME280;61690;51.824;6.306;2023-02-02T06:55:13;101989.38;;;20.35;43.02
73455;BME280;61690;51.824;6.306;2023-02-02T06:57:39;101993.63;;;20.38;42.88
73455;BME280;61690;51.824;6.306;2023-02-02T07:00:04;101995.75;;;20.47;42.86
73455;BME280;61690;51.824;6.306;2023-02-02T07:02:30;101989.28;;;20.53;42.86
73455;BME280;61690;51.824;6.306;2023-02-02T07:04:55;101993.88;;;20.49;42.89
73455;BME280;61690;51.824;6.306;2023-02-02T07:07:21;101999.94;;;20.51;43.26
73455;BME280;61690;51.824;6.306;2023-02-02T07:09:46;101997.81;;;20.58;43.18
73455;BME280;61690;51.824;6.306;2023-02-02T07:12:11;102001.56;;;20.54;43.18
73455;BME280;61690;51.824;6.306;2023-02-02T07:14:37;101998.84;;;20.40;42.59
73455;BME280;61690;51.824;6.306;2023-02-02T07:17:02;102004.78;;;20.59;40.60
73455;BME280;61690;51.824;6.306;2023-02-02T07:19:27;102005.22;;;20.51;41.03
73455;BME280;61690;51.824;6.306;2023-02-02T07:21:53;102002.78;;;20.48;40.92
73455;BME280;61690;51.824;6.306;2023-02-02T07:24:18;101998.69;;;20.43;41.06
73455;BME280;61690;51.824;6.306;2023-02-02T07:26:43;101998.69;;;20.43;41.55
73455;BME280;61690;51.824;6.306;2023-02-02T07:29:11;102009.69;;;20.35;41.29
73455;BME280;61690;51.824;6.306;2023-02-02T07:31:38;102006.34;;;20.31;41.47
73455;BME280;61690;51.824;6.306;2023-02-02T07:34:03;102010.03;;;20.29;41.31
73455;BME280;61690;51.824;6.306;2023-02-02T07:36:28;102004.72;;;20.29;41.23
73455;BME280;61690;51.824;6.306;2023-02-02T07:38:54;102008.78;;;20.34;40.98
73455;BME280;61690;51.824;6.306;2023-02-02T07:41:21;102014.25;;;20.47;41.64
73455;BME280;61690;51.824;6.306;2023-02-02T07:43:47;102011.03;;;20.58;41.39
73455;BME280;61690;51.824;6.306;2023-02-02T07:46:13;102019.69;;;20.62;41.65
73455;BME280;61690;51.824;6.306;2023-02-02T07:48:39;102022.22;;;20.63;41.79
73455;BME280;61690;51.824;6.306;2023-02-02T07:51:07;102024.34;;;20.72;41.55
73455;BME280;61690;51.824;6.306;2023-02-02T07:53:33;102035.53;;;20.78;41.75
73455;BME280;61690;51.824;6.306;2023-02-02T07:56:06;102042.34;;;20.82;42.11
73455;BME280;61690;51.824;6.306;2023-02-02T07:58:32;102038.94;;;20.80;42.40
73455;BME280;61690;51.824;6.306;2023-02-02T08:01:02;102051.22;;;20.81;42.58
73455;BME280;61690;51.824;6.306;2023-02-02T08:03:27;102038.56;;;20.86;42.32
73455;BME280;61690;51.824;6.306;2023-02-02T08:05:53;102041.22;;;20.86;42.07
73455;BME280;61690;51.824;6.306;2023-02-02T08:08:18;102044.91;;;20.83;42.30
73455;BME280;61690;51.824;6.306;2023-02-02T08:10:48;102050.00;;;20.86;42.51
73455;BME280;61690;51.824;6.306;2023-02-02T08:13:13;102052.47;;;20.89;42.75
73455;BME280;61690;51.824;6.306;2023-02-02T08:15:38;102046.91;;;20.94;42.48
73455;BME280;61690;51.824;6.306;2023-02-02T08:18:04;102053.25;;;20.91;42.36
73455;BME280;61690;51.824;6.306;2023-02-02T08:20:29;102059.38;;;20.92;42.54
73455;BME280;61690;51.824;6.306;2023-02-02T08:22:55;102065.53;;;20.92;42.61
73455;BME280;61690;51.824;6.306;2023-02-02T08:25:20;102062.78;;;20.94;42.72
73455;BME280;61690;51.824;6.306;2023-02-02T08:27:45;102071.50;;;20.96;42.82
73455;BME280;61690;51.824;6.306;2023-02-02T08:30:11;102067.91;;;20.97;42.81
73455;BME280;61690;51.824;6.306;2023-02-02T08:32:37;102065.34;;;20.95;42.83
73455;BME280;61690;51.824;6.306;2023-02-02T08:35:03;102066.22;;;20.96;42.33
73455;BME280;61690;51.824;6.306;2023-02-02T08:37:28;102066.63;;;20.41;41.59
73455;BME280;61690;51.824;6.306;2023-02-02T08:39:53;102075.03;;;17.97;44.54
73455;BME280;61690;51.824;6.306;2023-02-02T08:42:19;102083.41;;;18.83;43.66
73455;BME280;61690;51.824;6.306;2023-02-02T08:44:44;102081.03;;;20.02;41.01
73455;BME280;61690;51.824;6.306;2023-02-02T08:47:09;102086.19;;;20.86;39.89
73455;BME280;61690;51.824;6.306;2023-02-02T08:49:35;102079.19;;;21.31;38.89
73455;BME280;61690;51.824;6.306;2023-02-02T08:52:00;102086.59;;;21.56;38.48
73455;BME280;61690;51.824;6.306;2023-02-02T08:54:25;102084.91;;;21.69;38.71
73455;BME280;61690;51.824;6.306;2023-02-02T08:56:51;102094.84;;;21.80;38.61
73455;BME280;61690;51.824;6.306;2023-02-02T08:59:16;102089.19;;;21.86;38.59
73455;BME280;61690;51.824;6.306;2023-02-02T09:01:41;102092.22;;;21.95;38.64
73455;BME280;61690;51.824;6.306;2023-02-02T09:04:13;102103.09;;;22.04;38.57
73455;BME280;61690;51.824;6.306;2023-02-02T09:06:40;102094.69;;;22.12;38.52
73455;BME280;61690;51.824;6.306;2023-02-02T09:09:08;102112.09;;;22.16;38.68
73455;BME280;61690;51.824;6.306;2023-02-02T09:11:34;102100.56;;;22.31;38.94
73455;BME280;61690;51.824;6.306;2023-02-02T09:14:00;102114.59;;;22.34;38.73
73455;BME280;61690;51.824;6.306;2023-02-02T09:16:27;102111.84;;;22.35;38.58
73455;BME280;61690;51.824;6.306;2023-02-02T09:18:54;102111.38;;;22.43;38.69
73455;BME280;61690;51.824;6.306;2023-02-02T09:21:20;102111.53;;;22.40;39.01
73455;BME280;61690;51.824;6.306;2023-02-02T09:23:47;102124.75;;;22.11;39.34
73455;BME280;61690;51.824;6.306;2023-02-02T09:26:20;102131.59;;;21.86;40.31
73455;BME280;61690;51.824;6.306;2023-02-02T09:28:49;102128.16;;;21.84;40.47
73455;BME280;61690;51.824;6.306;2023-02-02T09:31:15;102143.69;;;21.60;40.72
73455;BME280;61690;51.824;6.306;2023-02-02T09:33:41;102139.22;;;21.46;41.16
73455;BME280;61690;51.824;6.306;2023-02-02T09:36:09;102148.78;;;21.33;41.38
73455;BME280;61690;51.824;6.306;2023-02-02T09:38:36;102152.88;;;21.23;41.59
73455;BME280;61690;51.824;6.306;2023-02-02T09:41:24;102167.22;;;21.19;42.13
73455;BME280;61690;51.824;6.306;2023-02-02T09:50:14;102174.13;;;21.37;42.57
73455;BME280;61690;51.824;6.306;2023-02-02T09:52:50;102174.41;;;21.32;42.45
73455;BME280;61690;51.824;6.306;2023-02-02T09:55:28;102178.00;;;21.15;42.91
73455;BME280;61690;51.824;6.306;2023-02-02T09:58:00;102179.28;;;21.08;43.11
73455;BME280;61690;51.824;6.306;2023-02-02T10:00:32;102187.94;;;20.79;43.96
73455;BME280;61690;51.824;6.306;2023-02-02T10:03:05;102187.84;;;20.64;43.86
73455;BME280;61690;51.824;6.306;2023-02-02T10:05:47;102189.91;;;20.57;44.14
73455;BME280;61690;51.824;6.306;2023-02-02T10:08:20;102192.56;;;20.57;44.05
73455;BME280;61690;51.824;6.306;2023-02-02T10:10:49;102196.22;;;20.55;44.23
73455;BME280;61690;51.824;6.306;2023-02-02T10:13:24;102192.81;;;20.53;44.35
73455;BME280;61690;51.824;6.306;2023-02-02T10:16:12;102197.47;;;20.48;44.54
73455;BME280;61690;51.824;6.306;2023-02-02T10:18:52;102196.22;;;20.55;44.46
73455;BME280;61690;51.824;6.306;2023-02-02T10:21:25;102204.75;;;20.78;44.17
73455;BME280;61690;51.824;6.306;2023-02-02T10:23:54;102201.53;;;20.88;44.05
73455;BME280;61690;51.824;6.306;2023-02-02T10:26:37;102205.88;;;21.05;43.73
73455;BME280;61690;51.824;6.306;2023-02-02T10:32:32;102219.28;;;21.18;43.62
73455;BME280;61690;51.824;6.306;2023-02-02T10:35:09;102211.19;;;21.21;43.83
73455;BME280;61690;51.824;6.306;2023-02-02T10:37:58;102218.09;;;21.24;43.67
73455;BME280;61690;51.824;6.306;2023-02-02T10:46:53;102217.75;;;21.14;43.86
73455;BME280;61690;51.824;6.306;2023-02-02T10:51:58;102227.31;;;20.85;43.80
73455;BME280;61690;51.824;6.306;2023-02-02T10:54:43;102213.94;;;20.70;43.29
73455;BME280;61690;51.824;6.306;2023-02-02T10:57:15;102230.16;;;20.64;43.78
73455;BME280;61690;51.824;6.306;2023-02-02T10:59:49;102229.69;;;20.56;43.47
73455;BME280;61690;51.824;6.306;2023-02-02T11:02:19;102230.53;;;20.56;43.65
73455;BME280;61690;51.824;6.306;2023-02-02T11:04:44;102237.25;;;20.46;43.45
73455;BME280;61690;51.824;6.306;2023-02-02T11:07:28;102233.13;;;20.41;43.91
73455;BME280;61690;51.824;6.306;2023-02-02T11:09:53;102227.97;;;20.37;43.61
73455;BME280;61690;51.824;6.306;2023-02-02T11:12:31;102230.00;;;20.32;43.49
73455;BME280;61690;51.824;6.306;2023-02-02T11:15:04;102234.44;;;20.32;43.76
73455;BME280;61690;51.824;6.306;2023-02-02T11:17:30;102218.59;;;20.32;43.07
73455;BME280;61690;51.824;6.306;2023-02-02T11:19:56;102224.31;;;20.40;42.77
73455;BME280;61690;51.824;6.306;2023-02-02T11:22:30;102218.56;;;20.49;42.84
73455;BME280;61690;51.824;6.306;2023-02-02T11:25:00;102212.88;;;20.57;42.31
73455;BME280;61690;51.824;6.306;2023-02-02T11:27:30;102220.78;;;20.57;42.19
73455;BME280;61690;51.824;6.306;2023-02-02T11:29:58;102217.19;;;20.60;42.30
73455;BME280;61690;51.824;6.306;2023-02-02T11:37:36;102225.69;;;20.98;42.10
73455;BME280;61690;51.824;6.306;2023-02-02T11:40:36;102216.03;;;20.97;42.21
73455;BME280;61690;51.824;6.306;2023-02-02T11:43:05;102214.16;;;20.99;42.51
73455;BME280;61690;51.824;6.306;2023-02-02T11:45:43;102210.75;;;20.97;42.55
73455;BME280;61690;51.824;6.306;2023-02-02T11:48:21;102215.28;;;20.95;42.59
73455;BME280;61690;51.824;6.306;2023-02-02T11:50:52;102218.06;;;20.92;42.94
73455;BME280;61690;51.824;6.306;2023-02-02T11:53:30;102211.94;;;20.91;42.94
73455;BME280;61690;51.824;6.306;2023-02-02T11:55:59;102218.94;;;20.92;43.10
73455;BME280;61690;51.824;6.306;2023-02-02T11:58:29;102221.81;;;20.88;43.48
73455;BME280;61690;51.824;6.306;2023-02-02T12:01:05;102221.81;;;20.88;43.60
73455;BME280;61690;51.824;6.306;2023-02-02T12:03:35;102221.06;;;20.86;43.57
73455;BME280;61690;51.824;6.306;2023-02-02T12:06:19;102230.25;;;20.79;43.92
73455;BME280;61690;51.824;6.306;2023-02-02T12:08:45;102224.38;;;20.73;43.99
73455;BME280;61690;51.824;6.306;2023-02-02T12:11:20;102227.25;;;20.69;44.44
73455;BME280;61690;51.824;6.306;2023-02-02T12:21:51;102233.25;;;20.55;44.72
73455;BME280;61690;51.824;6.306;2023-02-02T12:24:37;102234.34;;;20.68;44.31
73455;BME280;61690;51.824;6.306;2023-02-02T12:30:16;102239.41;;;20.89;44.34
73455;BME280;61690;51.824;6.306;2023-02-02T12:43:39;102218.69;;;21.13;44.40
73455;BME280;61690;51.824;6.306;2023-02-02T12:46:20;102217.22;;;21.07;44.27
73455;BME280;61690;51.824;6.306;2023-02-02T12:49:06;102224.94;;;20.96;44.52
73455;BME280;61690;51.824;6.306;2023-02-02T12:54:39;102213.25;;;21.00;44.20
73455;BME280;61690;51.824;6.306;2023-02-02T12:57:14;102210.06;;;20.93;44.62
73455;BME280;61690;51.824;6.306;2023-02-02T13:02:33;102201.69;;;20.85;45.10
73455;BME280;61690;51.824;6.306;2023-02-02T13:07:44;102209.78;;;20.82;45.09
73455;BME280;61690;51.824;6.306;2023-02-02T13:10:20;102208.16;;;20.80;45.19
73455;BME280;61690;51.824;6.306;2023-02-02T13:12:52;102215.50;;;20.74;45.46
73455;BME280;61690;51.824;6.306;2023-02-02T13:15:21;102214.13;;;20.67;45.04
73455;BME280;61690;51.824;6.306;2023-02-02T13:17:59;102212.44;;;20.31;43.90
73455;BME280;61690;51.824;6.306;2023-02-02T13:20:41;102209.97;;;20.28;44.76
73455;BME280;61690;51.824;6.306;2023-02-02T13:23:22;102223.34;;;20.25;44.99
73455;BME280;61690;51.824;6.306;2023-02-02T13:25:53;102219.44;;;20.32;45.31
73455;BME280;61690;51.824;6.306;2023-02-02T13:28:39;102220.91;;;20.38;45.28
73455;BME280;61690;51.824;6.306;2023-02-02T13:31:13;102211.03;;;20.42;45.24
73455;BME280;61690;51.824;6.306;2023-02-02T13:33:42;102213.66;;;20.42;45.14
73455;BME280;61690;51.824;6.306;2023-02-02T13:36:17;102217.41;;;20.37;45.54
73455;BME280;61690;51.824;6.306;2023-02-02T13:38:43;102214.84;;;20.36;45.90
73455;BME280;61690;51.824;6.306;2023-02-02T13:41:10;102217.75;;;20.31;46.14
73455;BME280;61690;51.824;6.306;2023-02-02T13:44:20;102218.59;;;20.32;45.96
73455;BME280;61690;51.824;6.306;2023-02-02T13:47:01;102219.22;;;20.37;45.79
73455;BME280;61690;51.824;6.306;2023-02-02T13:49:35;102216.72;;;20.34;45.87
73455;BME280;61690;51.824;6.306;2023-02-02T13:54:55;102220.06;;;20.20;46.27
73455;BME280;61690;51.824;6.306;2023-02-02T14:00:25;102215.56;;;20.05;46.73
73455;BME280;61690;51.824;6.306;2023-02-02T14:02:55;102226.84;;;20.08;46.58
73455;BME280;61690;51.824;6.306;2023-02-02T14:08:14;102223.03;;;19.96;47.01
73455;BME280;61690;51.824;6.306;2023-02-02T14:13:20;102227.22;;;20.01;47.15
73455;BME280;61690;51.824;6.306;2023-02-02T14:16:06;102229.09;;;20.16;46.90
73455;BME280;61690;51.824;6.306;2023-02-02T14:18:53;102237.78;;;20.35;46.82
73455;BME280;61690;51.824;6.306;2023-02-02T14:26:53;102237.25;;;20.46;46.53
73455;BME280;61690;51.824;6.306;2023-02-02T14:45:44;102252.38;;;19.90;48.95
73455;BME280;61690;51.824;6.306;2023-02-02T14:48:28;102254.22;;;19.88;48.75
73455;BME280;61690;51.824;6.306;2023-02-02T14:50:57;102258.75;;;19.86;48.85